sensor_id;sensor_type;location;lat;lon;timestamp;P1;durP1;ratioP1;P2;durP2;ratioP2
323;SDS011;149;51.094;17.002;2023-06-14T00:02:23;6.80;;;6.13;;
323;SDS011;149;51.094;17.002;2023-06-14T00:04:50;14.95;;;6.85;;
323;SDS011;149;51.094;17.002;2023-06-14T00:07:17;7.03;;;6.32;;
323;SDS011;149;51.094;17.002;2023-06-14T00:09:45;6.40;;;5.90;;
323;SDS011;149;51.094;17.002;2023-06-14T00:12:15;6.90;;;6.20;;
323;SDS011;149;51.094;17.002;2023-06-14T00:14:43;7.35;;;6.25;;
323;SDS011;149;51.094;17.002;2023-06-14T00:17:10;8.23;;;7.35;;
323;SDS011;149;51.094;17.002;2023-06-14T00:19:39;7.30;;;6.53;;
323;SDS011;149;51.094;17.002;2023-06-14T00:22:07;7.82;;;7.13;;
323;SDS011;149;51.094;17.002;2023-06-14T00:24:34;8.07;;;6.03;;
323;SDS011;149;51.094;17.002;2023-06-14T00:27:02;6.10;;;5.63;;
323;SDS011;149;51.094;17.002;2023-06-14T00:29:29;7.15;;;6.45;;
323;SDS011;149;51.094;17.002;2023-06-14T00:31:56;10.55;;;6.93;;
323;SDS011;149;51.094;17.002;2023-06-14T00:34:24;6.10;;;5.60;;
323;SDS011;149;51.094;17.002;2023-06-14T00:36:51;7.10;;;5.50;;
323;SDS011;149;51.094;17.002;2023-06-14T00:39:19;6.82;;;6.13;;
323;SDS011;149;51.094;17.002;2023-06-14T00:41:47;7.38;;;6.65;;
323;SDS011;149;51.094;17.002;2023-06-14T00:44:15;6.63;;;6.03;;
323;SDS011;149;51.094;17.002;2023-06-14T00:46:45;7.22;;;6.30;;
323;SDS011;149;51.094;17.002;2023-06-14T00:49:14;7.40;;;6.65;;
323;SDS011;149;51.094;17.002;2023-06-14T00:51:41;8.18;;;7.38;;
323;SDS011;149;51.094;17.002;2023-06-14T00:54:09;7.60;;;6.78;;
323;SDS011;149;51.094;17.002;2023-06-14T00:56:38;9.25;;;7.45;;
323;SDS011;149;51.094;17.002;2023-06-14T00:59:06;7.57;;;6.75;;
323;SDS011;149;51.094;17.002;2023-06-14T01:01:34;7.05;;;6.55;;
323;SDS011;149;51.094;17.002;2023-06-14T01:04:03;6.53;;;5.93;;
323;SDS011;149;51.094;17.002;2023-06-14T01:06:53;7.40;;;6.70;;
323;SDS011;149;51.094;17.002;2023-06-14T01:14:59;8.00;;;7.20;;
323;SDS011;149;51.094;17.002;2023-06-14T01:17:27;7.43;;;6.57;;
323;SDS011;149;51.094;17.002;2023-06-14T01:20:00;11.43;;;9.20;;
323;SDS011;149;51.094;17.002;2023-06-14T01:22:29;7.40;;;6.70;;
323;SDS011;149;51.094;17.002;2023-06-14T01:24:57;9.15;;;7.45;;
323;SDS011;149;51.094;17.002;2023-06-14T01:27:24;8.02;;;7.22;;
323;SDS011;149;51.094;17.002;2023-06-14T01:29:56;9.27;;;8.13;;
323;SDS011;149;51.094;17.002;2023-06-14T01:32:24;9.15;;;6.80;;
323;SDS011;149;51.094;17.002;2023-06-14T01:34:54;7.10;;;6.40;;
323;SDS011;149;51.094;17.002;2023-06-14T01:37:21;8.73;;;7.45;;
323;SDS011;149;51.094;17.002;2023-06-14T01:39:49;7.43;;;6.78;;
323;SDS011;149;51.094;17.002;2023-06-14T01:42:17;7.82;;;7.13;;
323;SDS011;149;51.094;17.002;2023-06-14T01:44:47;7.38;;;6.78;;
323;SDS011;149;51.094;17.002;2023-06-14T01:47:14;8.68;;;7.25;;
323;SDS011;149;51.094;17.002;2023-06-14T01:49:42;9.40;;;7.15;;
323;SDS011;149;51.094;17.002;2023-06-14T01:52:10;7.90;;;7.10;;
323;SDS011;149;51.094;17.002;2023-06-14T01:54:37;8.68;;;7.25;;
323;SDS011;149;51.094;17.002;2023-06-14T01:57:09;7.90;;;7.10;;
323;SDS011;149;51.094;17.002;2023-06-14T01:59:37;8.10;;;6.20;;
323;SDS011;149;51.094;17.002;2023-06-14T02:02:05;9.82;;;7.60;;
323;SDS011;149;51.094;17.002;2023-06-14T02:04:32;8.77;;;7.03;;
323;SDS011;149;51.094;17.002;2023-06-14T02:07:00;12.35;;;8.38;;
323;SDS011;149;51.094;17.002;2023-06-14T02:09:27;9.70;;;8.35;;
323;SDS011;149;51.094;17.002;2023-06-14T02:11:56;11.73;;;7.30;;
323;SDS011;149;51.094;17.002;2023-06-14T02:14:23;8.10;;;7.40;;
323;SDS011;149;51.094;17.002;2023-06-14T02:16:53;8.73;;;7.82;;
323;SDS011;149;51.094;17.002;2023-06-14T02:19:20;8.43;;;7.47;;
323;SDS011;149;51.094;17.002;2023-06-14T02:21:48;10.57;;;8.02;;
323;SDS011;149;51.094;17.002;2023-06-14T02:24:17;9.48;;;8.27;;
323;SDS011;149;51.094;17.002;2023-06-14T02:26:46;9.90;;;8.93;;
323;SDS011;149;51.094;17.002;2023-06-14T02:29:14;12.20;;;9.00;;
323;SDS011;149;51.094;17.002;2023-06-14T02:31:42;9.68;;;8.50;;
323;SDS011;149;51.094;17.002;2023-06-14T02:34:10;12.43;;;9.48;;
323;SDS011;149;51.094;17.002;2023-06-14T02:36:37;9.82;;;8.82;;
323;SDS011;149;51.094;17.002;2023-06-14T02:39:09;12.00;;;9.60;;
323;SDS011;149;51.094;17.002;2023-06-14T02:41:37;14.75;;;8.48;;
323;SDS011;149;51.094;17.002;2023-06-14T02:44:05;9.70;;;8.70;;
323;SDS011;149;51.094;17.002;2023-06-14T02:46:32;12.02;;;8.35;;
323;SDS011;149;51.094;17.002;2023-06-14T02:49:00;8.93;;;7.80;;
323;SDS011;149;51.094;17.002;2023-06-14T02:51:28;9.15;;;8.07;;
323;SDS011;149;51.094;17.002;2023-06-14T02:53:55;8.90;;;8.00;;
323;SDS011;149;51.094;17.002;2023-06-14T02:56:22;7.90;;;7.18;;
323;SDS011;149;51.094;17.002;2023-06-14T02:58:52;10.25;;;8.02;;
323;SDS011;149;51.094;17.002;2023-06-14T03:01:19;9.98;;;7.78;;
323;SDS011;149;51.094;17.002;2023-06-14T03:03:48;8.65;;;7.72;;
323;SDS011;149;51.094;17.002;2023-06-14T03:06:15;7.88;;;7.18;;
323;SDS011;149;51.094;17.002;2023-06-14T03:08:43;9.05;;;7.47;;
323;SDS011;149;51.094;17.002;2023-06-14T03:11:10;7.47;;;6.78;;
323;SDS011;149;51.094;17.002;2023-06-14T03:13:37;8.50;;;7.75;;
323;SDS011;149;51.094;17.002;2023-06-14T03:16:07;10.18;;;7.95;;
323;SDS011;149;51.094;17.002;2023-06-14T03:18:37;12.18;;;9.88;;
323;SDS011;149;51.094;17.002;2023-06-14T03:21:05;9.25;;;8.45;;
323;SDS011;149;51.094;17.002;2023-06-14T03:23:35;10.73;;;8.82;;
323;SDS011;149;51.094;17.002;2023-06-14T03:26:02;12.80;;;7.90;;
323;SDS011;149;51.094;17.002;2023-06-14T03:28:30;16.55;;;8.07;;
323;SDS011;149;51.094;17.002;2023-06-14T03:30:58;9.45;;;8.60;;
323;SDS011;149;51.094;17.002;2023-06-14T03:33:27;10.30;;;7.50;;
323;SDS011;149;51.094;17.002;2023-06-14T03:35:54;10.05;;;8.57;;
323;SDS011;149;51.094;17.002;2023-06-14T03:38:22;8.48;;;7.20;;
323;SDS011;149;51.094;17.002;2023-06-14T03:40:50;7.75;;;7.05;;
323;SDS011;149;51.094;17.002;2023-06-14T03:43:17;8.35;;;7.43;;
323;SDS011;149;51.094;17.002;2023-06-14T03:45:45;9.40;;;8.48;;
323;SDS011;149;51.094;17.002;2023-06-14T03:48:12;8.30;;;7.60;;
323;SDS011;149;51.094;17.002;2023-06-14T03:50:40;9.13;;;7.63;;
323;SDS011;149;51.094;17.002;2023-06-14T03:53:09;8.52;;;7.60;;
323;SDS011;149;51.094;17.002;2023-06-14T03:55:37;10.00;;;8.20;;
323;SDS011;149;51.094;17.002;2023-06-14T03:58:26;11.05;;;7.40;;
323;SDS011;149;51.094;17.002;2023-06-14T04:00:54;12.30;;;8.35;;
323;SDS011;149;51.094;17.002;2023-06-14T04:03:23;7.75;;;7.05;;
323;SDS011;149;51.094;17.002;2023-06-14T04:05:51;9.32;;;8.40;;
323;SDS011;149;51.094;17.002;2023-06-14T04:08:23;8.88;;;6.35;;
323;SDS011;149;51.094;17.002;2023-06-14T04:10:52;6.82;;;6.20;;
323;SDS011;149;51.094;17.002;2023-06-14T04:13:20;7.13;;;6.50;;
323;SDS011;149;51.094;17.002;2023-06-14T04:15:48;7.85;;;7.03;;
323;SDS011;149;51.094;17.002;2023-06-14T04:18:16;6.75;;;6.05;;
323;SDS011;149;51.094;17.002;2023-06-14T04:20:50;9.38;;;7.53;;
323;SDS011;149;51.094;17.002;2023-06-14T04:23:18;8.50;;;7.70;;
323;SDS011;149;51.094;17.002;2023-06-14T04:25:46;9.63;;;6.43;;
323;SDS011;149;51.094;17.002;2023-06-14T04:28:16;8.33;;;6.13;;
323;SDS011;149;51.094;17.002;2023-06-14T04:30:46;7.00;;;6.37;;
323;SDS011;149;51.094;17.002;2023-06-14T04:33:14;11.53;;;6.97;;
323;SDS011;149;51.094;17.002;2023-06-14T04:35:44;9.40;;;7.90;;
323;SDS011;149;51.094;17.002;2023-06-14T04:38:15;8.37;;;7.23;;
323;SDS011;149;51.094;17.002;2023-06-14T04:40:44;10.20;;;6.90;;
323;SDS011;149;51.094;17.002;2023-06-14T04:43:13;7.80;;;7.03;;
323;SDS011;149;51.094;17.002;2023-06-14T04:45:41;7.43;;;6.70;;
323;SDS011;149;51.094;17.002;2023-06-14T04:48:11;7.83;;;6.70;;
323;SDS011;149;51.094;17.002;2023-06-14T04:50:39;8.03;;;6.90;;
323;SDS011;149;51.094;17.002;2023-06-14T04:53:10;7.83;;;7.03;;
323;SDS011;149;51.094;17.002;2023-06-14T04:55:38;8.07;;;7.30;;
323;SDS011;149;51.094;17.002;2023-06-14T04:58:06;13.30;;;7.33;;
323;SDS011;149;51.094;17.002;2023-06-14T05:00:34;11.10;;;7.87;;
323;SDS011;149;51.094;17.002;2023-06-14T05:03:02;9.50;;;6.70;;
323;SDS011;149;51.094;17.002;2023-06-14T05:05:29;14.33;;;8.73;;
323;SDS011;149;51.094;17.002;2023-06-14T05:07:57;12.30;;;8.17;;
323;SDS011;149;51.094;17.002;2023-06-14T05:10:24;7.07;;;6.47;;
323;SDS011;149;51.094;17.002;2023-06-14T05:12:52;7.83;;;7.00;;
323;SDS011;149;51.094;17.002;2023-06-14T05:15:20;7.03;;;6.37;;
323;SDS011;149;51.094;17.002;2023-06-14T05:17:52;8.20;;;7.50;;
323;SDS011;149;51.094;17.002;2023-06-14T05:20:22;7.47;;;6.77;;
323;SDS011;149;51.094;17.002;2023-06-14T05:22:53;10.03;;;9.03;;
323;SDS011;149;51.094;17.002;2023-06-14T05:25:21;12.87;;;9.07;;
323;SDS011;149;51.094;17.002;2023-06-14T05:27:49;10.80;;;9.70;;
323;SDS011;149;51.094;17.002;2023-06-14T05:30:16;10.40;;;9.40;;
323;SDS011;149;51.094;17.002;2023-06-14T05:32:44;13.10;;;10.40;;
323;SDS011;149;51.094;17.002;2023-06-14T05:35:11;11.60;;;9.97;;
323;SDS011;149;51.094;17.002;2023-06-14T05:37:40;13.33;;;10.53;;
323;SDS011;149;51.094;17.002;2023-06-14T05:40:07;14.30;;;11.10;;
323;SDS011;149;51.094;17.002;2023-06-14T05:42:35;12.23;;;10.97;;
323;SDS011;149;51.094;17.002;2023-06-14T05:45:03;14.10;;;11.30;;
323;SDS011;149;51.094;17.002;2023-06-14T05:47:30;11.93;;;10.73;;
323;SDS011;149;51.094;17.002;2023-06-14T05:49:58;13.87;;;11.13;;
323;SDS011;149;51.094;17.002;2023-06-14T05:52:28;14.23;;;11.37;;
323;SDS011;149;51.094;17.002;2023-06-14T05:54:55;17.73;;;15.03;;
323;SDS011;149;51.094;17.002;2023-06-14T05:57:23;21.00;;;13.80;;
323;SDS011;149;51.094;17.002;2023-06-14T05:59:50;12.07;;;10.90;;
323;SDS011;149;51.094;17.002;2023-06-14T06:02:18;12.23;;;10.37;;
323;SDS011;149;51.094;17.002;2023-06-14T06:04:46;12.30;;;11.03;;
323;SDS011;149;51.094;17.002;2023-06-14T06:07:13;12.53;;;10.60;;
323;SDS011;149;51.094;17.002;2023-06-14T06:09:41;13.37;;;12.10;;
323;SDS011;149;51.094;17.002;2023-06-14T06:12:08;13.77;;;11.67;;
323;SDS011;149;51.094;17.002;2023-06-14T06:14:36;14.30;;;10.57;;
323;SDS011;149;51.094;17.002;2023-06-14T06:17:04;13.37;;;11.73;;
323;SDS011;149;51.094;17.002;2023-06-14T06:19:31;13.37;;;11.97;;
323;SDS011;149;51.094;17.002;2023-06-14T06:21:59;12.70;;;11.40;;
323;SDS011;149;51.094;17.002;2023-06-14T06:24:26;11.90;;;10.57;;
323;SDS011;149;51.094;17.002;2023-06-14T06:26:54;11.13;;;9.70;;
323;SDS011;149;51.094;17.002;2023-06-14T06:29:22;15.47;;;12.47;;
323;SDS011;149;51.094;17.002;2023-06-14T06:31:49;17.50;;;11.30;;
323;SDS011;149;51.094;17.002;2023-06-14T06:34:16;16.20;;;10.40;;
323;SDS011;149;51.094;17.002;2023-06-14T06:36:44;12.43;;;11.10;;
323;SDS011;149;51.094;17.002;2023-06-14T06:39:11;14.60;;;12.23;;
323;SDS011;149;51.094;17.002;2023-06-14T06:41:40;13.90;;;11.13;;
323;SDS011;149;51.094;17.002;2023-06-14T06:44:08;14.57;;;10.43;;
323;SDS011;149;51.094;17.002;2023-06-14T06:46:39;12.83;;;10.63;;
323;SDS011;149;51.094;17.002;2023-06-14T06:49:10;13.27;;;11.57;;
323;SDS011;149;51.094;17.002;2023-06-14T06:51:43;21.57;;;12.20;;
323;SDS011;149;51.094;17.002;2023-06-14T06:54:11;14.00;;;11.70;;
323;SDS011;149;51.094;17.002;2023-06-14T06:56:39;13.17;;;11.87;;
323;SDS011;149;51.094;17.002;2023-06-14T06:59:06;15.60;;;14.00;;
323;SDS011;149;51.094;17.002;2023-06-14T07:01:34;16.73;;;12.43;;
323;SDS011;149;51.094;17.002;2023-06-14T07:04:02;13.03;;;11.57;;
323;SDS011;149;51.094;17.002;2023-06-14T07:06:30;14.40;;;12.07;;
323;SDS011;149;51.094;17.002;2023-06-14T07:08:57;13.73;;;12.27;;
323;SDS011;149;51.094;17.002;2023-06-14T07:11:28;15.23;;;10.97;;
323;SDS011;149;51.094;17.002;2023-06-14T07:13:55;13.53;;;12.23;;
323;SDS011;149;51.094;17.002;2023-06-14T07:16:24;13.80;;;12.17;;
323;SDS011;149;51.094;17.002;2023-06-14T07:18:52;12.37;;;11.20;;
323;SDS011;149;51.094;17.002;2023-06-14T07:21:19;14.10;;;12.40;;
323;SDS011;149;51.094;17.002;2023-06-14T07:23:47;14.57;;;11.73;;
323;SDS011;149;51.094;17.002;2023-06-14T07:26:14;15.40;;;12.30;;
323;SDS011;149;51.094;17.002;2023-06-14T07:28:41;16.70;;;14.90;;
323;SDS011;149;51.094;17.002;2023-06-14T07:31:11;14.97;;;12.77;;
323;SDS011;149;51.094;17.002;2023-06-14T07:33:39;14.83;;;12.20;;
323;SDS011;149;51.094;17.002;2023-06-14T07:36:07;13.50;;;12.30;;
323;SDS011;149;51.094;17.002;2023-06-14T07:38:34;14.73;;;13.37;;
323;SDS011;149;51.094;17.002;2023-06-14T07:41:02;17.00;;;13.07;;
323;SDS011;149;51.094;17.002;2023-06-14T07:43:30;14.33;;;12.93;;
323;SDS011;149;51.094;17.002;2023-06-14T07:45:57;13.73;;;12.33;;
323;SDS011;149;51.094;17.002;2023-06-14T07:48:33;15.10;;;13.53;;
323;SDS011;149;51.094;17.002;2023-06-14T07:51:01;12.97;;;11.70;;
323;SDS011;149;51.094;17.002;2023-06-14T07:53:29;13.17;;;11.97;;
323;SDS011;149;51.094;17.002;2023-06-14T07:55:57;13.97;;;12.50;;
323;SDS011;149;51.094;17.002;2023-06-14T07:58:25;14.23;;;12.63;;
323;SDS011;149;51.094;17.002;2023-06-14T08:00:52;13.07;;;11.43;;
323;SDS011;149;51.094;17.002;2023-06-14T08:03:20;13.00;;;11.57;;
323;SDS011;149;51.094;17.002;2023-06-14T08:05:49;13.47;;;12.00;;
323;SDS011;149;51.094;17.002;2023-06-14T08:08:16;12.70;;;11.50;;
323;SDS011;149;51.094;17.002;2023-06-14T08:10:44;12.10;;;10.83;;
323;SDS011;149;51.094;17.002;2023-06-14T08:13:12;12.50;;;11.20;;
323;SDS011;149;51.094;17.002;2023-06-14T08:15:39;11.20;;;10.10;;
323;SDS011;149;51.094;17.002;2023-06-14T08:18:07;12.90;;;11.60;;
323;SDS011;149;51.094;17.002;2023-06-14T08:20:35;15.30;;;12.40;;
323;SDS011;149;51.094;17.002;2023-06-14T08:23:02;19.50;;;12.03;;
323;SDS011;149;51.094;17.002;2023-06-14T08:25:30;12.93;;;10.73;;
323;SDS011;149;51.094;17.002;2023-06-14T08:27:58;11.73;;;10.47;;
323;SDS011;149;51.094;17.002;2023-06-14T08:30:26;13.13;;;11.80;;
323;SDS011;149;51.094;17.002;2023-06-14T08:32:54;13.13;;;11.93;;
323;SDS011;149;51.094;17.002;2023-06-14T08:35:40;17.03;;;10.60;;
323;SDS011;149;51.094;17.002;2023-06-14T08:38:09;13.00;;;11.50;;
323;SDS011;149;51.094;17.002;2023-06-14T08:40:38;10.27;;;9.40;;
323;SDS011;149;51.094;17.002;2023-06-14T08:43:07;13.17;;;11.20;;
323;SDS011;149;51.094;17.002;2023-06-14T08:45:35;11.30;;;10.20;;
323;SDS011;149;51.094;17.002;2023-06-14T08:48:02;12.40;;;11.07;;
323;SDS011;149;51.094;17.002;2023-06-14T08:50:30;11.47;;;10.30;;
323;SDS011;149;51.094;17.002;2023-06-14T08:53:01;10.83;;;9.70;;
323;SDS011;149;51.094;17.002;2023-06-14T08:55:30;11.73;;;10.30;;
323;SDS011;149;51.094;17.002;2023-06-14T08:58:02;15.23;;;11.03;;
323;SDS011;149;51.094;17.002;2023-06-14T09:00:32;12.70;;;10.60;;
323;SDS011;149;51.094;17.002;2023-06-14T09:03:01;11.70;;;10.50;;
323;SDS011;149;51.094;17.002;2023-06-14T09:05:29;11.37;;;10.27;;
323;SDS011;149;51.094;17.002;2023-06-14T09:07:57;11.97;;;10.87;;
323;SDS011;149;51.094;17.002;2023-06-14T09:10:31;22.43;;;10.50;;
323;SDS011;149;51.094;17.002;2023-06-14T09:13:04;11.13;;;10.10;;
323;SDS011;149;51.094;17.002;2023-06-14T09:15:32;18.03;;;10.90;;
323;SDS011;149;51.094;17.002;2023-06-14T09:18:03;11.13;;;10.10;;
323;SDS011;149;51.094;17.002;2023-06-14T09:20:31;11.20;;;10.10;;
323;SDS011;149;51.094;17.002;2023-06-14T09:23:00;10.80;;;9.80;;
323;SDS011;149;51.094;17.002;2023-06-14T09:25:27;11.77;;;10.57;;
323;SDS011;149;51.094;17.002;2023-06-14T09:27:57;10.40;;;9.40;;
323;SDS011;149;51.094;17.002;2023-06-14T09:30:25;12.50;;;9.10;;
323;SDS011;149;51.094;17.002;2023-06-14T09:32:52;11.40;;;10.20;;
323;SDS011;149;51.094;17.002;2023-06-14T09:35:20;12.37;;;10.03;;
323;SDS011;149;51.094;17.002;2023-06-14T09:37:47;9.37;;;8.67;;
323;SDS011;149;51.094;17.002;2023-06-14T09:40:19;11.43;;;9.00;;
323;SDS011;149;51.094;17.002;2023-06-14T09:42:47;9.20;;;8.30;;
323;SDS011;149;51.094;17.002;2023-06-14T09:45:15;10.27;;;9.27;;
323;SDS011;149;51.094;17.002;2023-06-14T09:47:49;9.80;;;8.60;;
323;SDS011;149;51.094;17.002;2023-06-14T09:50:32;9.53;;;8.53;;
323;SDS011;149;51.094;17.002;2023-06-14T09:53:02;16.63;;;9.30;;
323;SDS011;149;51.094;17.002;2023-06-14T09:55:30;12.13;;;11.03;;
323;SDS011;149;51.094;17.002;2023-06-14T09:57:57;11.40;;;10.10;;
323;SDS011;149;51.094;17.002;2023-06-14T10:00:27;13.00;;;11.90;;
323;SDS011;149;51.094;17.002;2023-06-14T10:02:59;12.53;;;11.60;;
323;SDS011;149;51.094;17.002;2023-06-14T10:05:27;12.27;;;11.27;;
323;SDS011;149;51.094;17.002;2023-06-14T10:08:05;11.20;;;10.17;;
323;SDS011;149;51.094;17.002;2023-06-14T10:10:34;12.63;;;10.70;;
323;SDS011;149;51.094;17.002;2023-06-14T10:13:02;16.30;;;10.47;;
323;SDS011;149;51.094;17.002;2023-06-14T10:15:35;12.93;;;9.80;;
323;SDS011;149;51.094;17.002;2023-06-14T10:18:07;9.50;;;8.60;;
323;SDS011;149;51.094;17.002;2023-06-14T10:20:39;8.90;;;8.13;;
323;SDS011;149;51.094;17.002;2023-06-14T10:23:17;9.30;;;8.47;;
323;SDS011;149;51.094;17.002;2023-06-14T10:25:45;8.37;;;7.57;;
323;SDS011;149;51.094;17.002;2023-06-14T10:28:18;8.87;;;7.17;;
323;SDS011;149;51.094;17.002;2023-06-14T10:33:33;9.53;;;8.40;;
323;SDS011;149;51.094;17.002;2023-06-14T10:36:10;8.43;;;7.73;;
323;SDS011;149;51.094;17.002;2023-06-14T10:39:10;7.87;;;7.17;;
323;SDS011;149;51.094;17.002;2023-06-14T10:41:38;7.10;;;6.37;;
323;SDS011;149;51.094;17.002;2023-06-14T10:46:39;8.43;;;5.80;;
323;SDS011;149;51.094;17.002;2023-06-14T10:49:10;8.90;;;7.30;;
323;SDS011;149;51.094;17.002;2023-06-14T10:51:38;7.70;;;6.90;;
323;SDS011;149;51.094;17.002;2023-06-14T10:54:15;8.70;;;6.70;;
323;SDS011;149;51.094;17.002;2023-06-14T10:56:47;7.53;;;6.23;;
323;SDS011;149;51.094;17.002;2023-06-14T10:59:16;6.70;;;6.20;;
323;SDS011;149;51.094;17.002;2023-06-14T11:01:53;8.17;;;7.43;;
323;SDS011;149;51.094;17.002;2023-06-14T11:04:28;11.73;;;7.23;;
323;SDS011;149;51.094;17.002;2023-06-14T11:07:10;6.53;;;6.00;;
323;SDS011;149;51.094;17.002;2023-06-14T11:12:31;5.97;;;5.53;;
323;SDS011;149;51.094;17.002;2023-06-14T11:14:59;8.23;;;6.10;;
323;SDS011;149;51.094;17.002;2023-06-14T11:17:26;6.47;;;5.80;;
323;SDS011;149;51.094;17.002;2023-06-14T11:20:10;6.13;;;5.63;;
323;SDS011;149;51.094;17.002;2023-06-14T11:22:46;7.20;;;6.60;;
323;SDS011;149;51.094;17.002;2023-06-14T11:25:14;6.70;;;6.20;;
323;SDS011;149;51.094;17.002;2023-06-14T11:27:42;6.57;;;6.07;;
323;SDS011;149;51.094;17.002;2023-06-14T11:30:09;6.00;;;5.53;;
323;SDS011;149;51.094;17.002;2023-06-14T11:32:37;7.13;;;5.97;;
323;SDS011;149;51.094;17.002;2023-06-14T11:35:05;6.77;;;6.27;;
323;SDS011;149;51.094;17.002;2023-06-14T11:37:33;8.00;;;5.90;;
323;SDS011;149;51.094;17.002;2023-06-14T11:40:00;7.10;;;6.40;;
323;SDS011;149;51.094;17.002;2023-06-14T11:42:29;7.60;;;6.83;;
323;SDS011;149;51.094;17.002;2023-06-14T11:44:56;7.23;;;6.73;;
323;SDS011;149;51.094;17.002;2023-06-14T11:47:35;5.87;;;5.43;;
323;SDS011;149;51.094;17.002;2023-06-14T11:50:03;7.43;;;6.83;;
323;SDS011;149;51.094;17.002;2023-06-14T11:52:31;7.50;;;6.80;;
323;SDS011;149;51.094;17.002;2023-06-14T11:54:59;6.70;;;6.17;;
323;SDS011;149;51.094;17.002;2023-06-14T11:57:26;7.90;;;7.23;;
323;SDS011;149;51.094;17.002;2023-06-14T11:59:54;8.43;;;7.53;;
323;SDS011;149;51.094;17.002;2023-06-14T12:02:22;6.40;;;6.00;;
323;SDS011;149;51.094;17.002;2023-06-14T12:04:51;7.13;;;6.43;;
323;SDS011;149;51.094;17.002;2023-06-14T12:07:21;7.40;;;6.30;;
323;SDS011;149;51.094;17.002;2023-06-14T12:12:25;7.90;;;5.90;;
323;SDS011;149;51.094;17.002;2023-06-14T12:14:53;11.73;;;5.67;;
323;SDS011;149;51.094;17.002;2023-06-14T12:17:20;7.40;;;5.73;;
323;SDS011;149;51.094;17.002;2023-06-14T12:19:50;6.57;;;6.07;;
323;SDS011;149;51.094;17.002;2023-06-14T12:22:17;5.90;;;5.40;;
323;SDS011;149;51.094;17.002;2023-06-14T12:24:45;6.30;;;5.60;;
323;SDS011;149;51.094;17.002;2023-06-14T12:27:13;6.30;;;5.77;;
323;SDS011;149;51.094;17.002;2023-06-14T12:29:42;6.30;;;5.70;;
323;SDS011;149;51.094;17.002;2023-06-14T12:32:12;6.10;;;5.60;;
323;SDS011;149;51.094;17.002;2023-06-14T12:34:42;6.50;;;5.90;;
323;SDS011;149;51.094;17.002;2023-06-14T12:37:10;5.23;;;4.80;;
323;SDS011;149;51.094;17.002;2023-06-14T12:39:37;5.57;;;5.17;;
323;SDS011;149;51.094;17.002;2023-06-14T12:42:06;6.43;;;5.93;;
323;SDS011;149;51.094;17.002;2023-06-14T12:44:34;8.83;;;7.20;;
323;SDS011;149;51.094;17.002;2023-06-14T12:47:06;7.60;;;5.80;;
323;SDS011;149;51.094;17.002;2023-06-14T12:49:34;6.70;;;6.10;;
323;SDS011;149;51.094;17.002;2023-06-14T12:52:01;6.10;;;5.60;;
323;SDS011;149;51.094;17.002;2023-06-14T12:54:29;6.90;;;6.20;;
323;SDS011;149;51.094;17.002;2023-06-14T12:57:08;7.33;;;6.27;;
323;SDS011;149;51.094;17.002;2023-06-14T12:59:41;5.67;;;5.17;;
323;SDS011;149;51.094;17.002;2023-06-14T13:02:12;6.70;;;5.87;;
323;SDS011;149;51.094;17.002;2023-06-14T13:04:41;8.50;;;6.60;;
323;SDS011;149;51.094;17.002;2023-06-14T13:07:09;6.17;;;5.57;;
323;SDS011;149;51.094;17.002;2023-06-14T13:09:41;6.70;;;5.70;;
323;SDS011;149;51.094;17.002;2023-06-14T13:12:12;7.43;;;6.73;;
323;SDS011;149;51.094;17.002;2023-06-14T13:14:40;12.70;;;5.73;;
323;SDS011;149;51.094;17.002;2023-06-14T13:17:08;6.63;;;6.00;;
323;SDS011;149;51.094;17.002;2023-06-14T13:19:36;8.93;;;7.07;;
323;SDS011;149;51.094;17.002;2023-06-14T13:22:04;6.53;;;5.93;;
323;SDS011;149;51.094;17.002;2023-06-14T13:24:31;6.73;;;6.23;;
323;SDS011;149;51.094;17.002;2023-06-14T13:26:59;6.87;;;6.20;;
323;SDS011;149;51.094;17.002;2023-06-14T13:29:26;7.53;;;6.83;;
323;SDS011;149;51.094;17.002;2023-06-14T13:31:54;7.00;;;6.40;;
323;SDS011;149;51.094;17.002;2023-06-14T13:34:22;7.60;;;7.00;;
323;SDS011;149;51.094;17.002;2023-06-14T13:36:49;6.40;;;5.90;;
323;SDS011;149;51.094;17.002;2023-06-14T13:39:17;7.63;;;6.93;;
323;SDS011;149;51.094;17.002;2023-06-14T13:41:45;7.53;;;6.90;;
323;SDS011;149;51.094;17.002;2023-06-14T13:44:12;8.07;;;6.70;;
323;SDS011;149;51.094;17.002;2023-06-14T13:46:42;6.83;;;6.00;;
323;SDS011;149;51.094;17.002;2023-06-14T13:49:10;9.13;;;6.60;;
323;SDS011;149;51.094;17.002;2023-06-14T13:51:39;8.20;;;6.63;;
323;SDS011;149;51.094;17.002;2023-06-14T13:54:06;7.30;;;5.90;;
323;SDS011;149;51.094;17.002;2023-06-14T13:56:34;6.00;;;5.40;;
323;SDS011;149;51.094;17.002;2023-06-14T13:59:01;6.60;;;6.00;;
323;SDS011;149;51.094;17.002;2023-06-14T14:01:29;6.57;;;5.90;;
323;SDS011;149;51.094;17.002;2023-06-14T14:03:56;6.80;;;6.03;;
323;SDS011;149;51.094;17.002;2023-06-14T14:06:25;12.63;;;5.77;;
323;SDS011;149;51.094;17.002;2023-06-14T14:08:52;9.93;;;6.57;;
323;SDS011;149;51.094;17.002;2023-06-14T14:11:23;7.67;;;6.90;;
323;SDS011;149;51.094;17.002;2023-06-14T14:13:50;9.23;;;6.03;;
323;SDS011;149;51.094;17.002;2023-06-14T14:16:18;7.27;;;6.20;;
323;SDS011;149;51.094;17.002;2023-06-14T14:18:46;7.50;;;6.67;;
323;SDS011;149;51.094;17.002;2023-06-14T14:21:13;7.07;;;6.47;;
323;SDS011;149;51.094;17.002;2023-06-14T14:23:43;6.17;;;5.67;;
323;SDS011;149;51.094;17.002;2023-06-14T14:26:13;6.77;;;6.20;;
323;SDS011;149;51.094;17.002;2023-06-14T14:28:42;15.83;;;7.03;;
323;SDS011;149;51.094;17.002;2023-06-14T14:31:10;6.87;;;6.17;;
323;SDS011;149;51.094;17.002;2023-06-14T14:33:37;8.90;;;6.37;;
323;SDS011;149;51.094;17.002;2023-06-14T14:36:05;6.87;;;5.67;;
323;SDS011;149;51.094;17.002;2023-06-14T14:38:33;7.00;;;5.30;;
323;SDS011;149;51.094;17.002;2023-06-14T14:41:01;5.50;;;4.70;;
323;SDS011;149;51.094;17.002;2023-06-14T14:43:28;5.63;;;5.13;;
323;SDS011;149;51.094;17.002;2023-06-14T14:45:59;4.60;;;4.20;;
323;SDS011;149;51.094;17.002;2023-06-14T14:48:27;4.50;;;4.00;;
323;SDS011;149;51.094;17.002;2023-06-14T14:50:54;5.20;;;4.70;;
323;SDS011;149;51.094;17.002;2023-06-14T14:53:22;7.90;;;5.37;;
323;SDS011;149;51.094;17.002;2023-06-14T14:55:52;5.03;;;4.40;;
323;SDS011;149;51.094;17.002;2023-06-14T14:58:20;4.00;;;3.70;;
323;SDS011;149;51.094;17.002;2023-06-14T15:00:47;5.30;;;4.90;;
323;SDS011;149;51.094;17.002;2023-06-14T15:03:14;5.80;;;5.40;;
323;SDS011;149;51.094;17.002;2023-06-14T15:05:42;6.00;;;5.50;;
323;SDS011;149;51.094;17.002;2023-06-14T15:08:09;6.53;;;5.90;;
323;SDS011;149;51.094;17.002;2023-06-14T15:10:38;9.00;;;6.67;;
323;SDS011;149;51.094;17.002;2023-06-14T15:13:08;6.53;;;5.80;;
323;SDS011;149;51.094;17.002;2023-06-14T15:15:35;7.60;;;5.83;;
323;SDS011;149;51.094;17.002;2023-06-14T15:18:03;9.43;;;6.50;;
323;SDS011;149;51.094;17.002;2023-06-14T15:20:30;9.50;;;8.30;;
323;SDS011;149;51.094;17.002;2023-06-14T15:22:58;7.00;;;6.33;;
323;SDS011;149;51.094;17.002;2023-06-14T15:25:26;7.33;;;6.47;;
323;SDS011;149;51.094;17.002;2023-06-14T15:27:54;7.50;;;6.80;;
323;SDS011;149;51.094;17.002;2023-06-14T15:30:24;6.90;;;6.30;;
323;SDS011;149;51.094;17.002;2023-06-14T15:32:51;7.60;;;6.17;;
323;SDS011;149;51.094;17.002;2023-06-14T15:35:19;7.50;;;6.10;;
323;SDS011;149;51.094;17.002;2023-06-14T15:37:47;8.63;;;7.83;;
323;SDS011;149;51.094;17.002;2023-06-14T15:40:15;7.97;;;7.20;;
323;SDS011;149;51.094;17.002;2023-06-14T15:42:43;7.73;;;6.93;;
323;SDS011;149;51.094;17.002;2023-06-14T15:45:10;6.63;;;6.00;;
323;SDS011;149;51.094;17.002;2023-06-14T15:47:38;8.40;;;7.60;;